Fairbanks, AK (99775)

8:04 AM AKDT on August 25, 2016 (GMT -0800)
Forrest Ridge | | Change Station

Elev 822 ft 64.82 °N, 147.97 °W | Updated 6 minutes ago

Overcast
Overcast
56.3 °F
Feels Like 56.3 °F
N
0.0
Wind Variable Wind from West

Today
High -- | Low -- °F
--% Chance of Precip.
Yesterday
High -- | Low -- °F
Precip. -- in
Pressure 30.17 in
Visibility 10.0 miles
Clouds Mostly Cloudy 5000 ft
Overcast 8000 ft
Dew Point 55 °F
Humidity 94%
Rainfall 0.00 in
Snow Depth Not available.
6:12 AM 9:32 PM
Last Quarter, 44% visible
METAR PAFA 251553Z 00000KT 10SM BKN050 OVC080 14/13 A3016 RMK AO2 SLP215 SH DSNT SE-SW T01390128 $
Pressure 30.17 in
Visibility 10.0 miles
Clouds Mostly Cloudy 5000 ft
Overcast 8000 ft
Dew Point 55 °F
Humidity 94%
Rainfall 0.00 in
Snow Depth Not available.
6:12 AM 9:32 PM
Last Quarter, 44% visible
METAR PAFA 251553Z 00000KT 10SM BKN050 OVC080 14/13 A3016 RMK AO2 SLP215 SH DSNT SE-SW T01390128 $

10-Day Weather Forecast

Almanac

Astronomy

Aug. 25, 2016 Rise Set
Actual Time
Civil Twilight
Nautical Twilight
Astronomical Twilight
Moon
Length of Visible Light
Length of Day
Tomorrow will be .
, % of the Moon is Illuminated

Today's Extremes

State Highs State Lows

Community

WunderPhotos

Upload Photos

1,934,867 photos uploaded!

WunderBlog® & News

Nearby

Air Quality

  Air Quality AQ Index Pollutant
Not available.

Snow Depth

Station Depth Elevation

Earthquake Activity

City Distance Mag. Time & Date
Minimum magnitude displayed is 2.5.

Coastal Water Temperatures

Place Temperature

Stations

Nearby Weather Stations

Station Location Temp. Windchill Dew Point Humidity Wind Precip. Elev Updated Type
                   

Watches & Warnings

There are currently no watches in effect.